Share

Gdansk Airport, Poland

Rebiechowo (EPGD) Elev 453 ft | 54.38 °N, 18.47 °E | Change Station

Current weather conditions updated 29 minutes ago

Scattered Clouds
Scattered Clouds
48 °F
Feels Like 48 °F
N
5
Wind Variable Wind from NE
Sunrise 5:35 AM
Sunset 7:56 PM
Moon Waning Gibbous

Today is forecast to be Warmer than yesterday.

Pressure 30.09 in
Visibility 6.2 miles
Clouds Scattered Clouds 3600 ft
Dew Point 41 °F
Humidity 76%
Rainfall 0.00 in
Snow Depth Not available.
UV 0 out of 16
Pollen Not available.
Air Quality Not available.
Flu Activity Not available.
METAR EPGD 190100Z 04004KT 360V060 9999 SCT036 09/05 Q1019

More Conditions Fewer Conditions

Pressure 30.09 in
Visibility 6.2 miles
Clouds Scattered Clouds 3600 ft
Dew Point 41 °F
Humidity 76%
Rainfall 0.00 in
Snow Depth Not available.
UV 0 out of 16
Pollen Not available.
Air Quality Not available.
Flu Activity Not available.
METAR EPGD 190100Z 04004KT 360V060 9999 SCT036 09/05 Q1019

More Conditions Fewer Conditions

10-Day Weather Forecast

Almanac

Astronomy

Apr. 19, 2014 Rise Set
Actual Time 5:35 AM CEST 7:56 PM CEST
Civil Twilight 4:56 AM CEST 8:35 PM CEST
Nautical Twilight 4:06 AM CEST 9:25 PM CEST
Astronomical Twilight 3:07 AM CEST 10:26 PM CEST
Moon No Moon Rise 8:14 AM CEST
Length of Visible Light 15h 38m
Length of Day
14h 20m
Tomorrow will be 4m 13s longer.
Waning Gibbous, 84% of the Moon is Illuminated
Apr 18
Waning Gibbous
Apr 22
Last Quarter
Apr 29
New
May 6
First Quarter
May 14
Full

Yesterday's Extremes

Country Highs Country Lows

Community

  • Cloudy spring view
    Cloudy spring view
  • Old barn
    Old barn
  • What's for Lunch?
    What's for Lunch?
  • SUNRISE THROUGH THE TREES.
    SUNRISE THROUGH THE TREES.
  • Dog Wood Blossoms
    Dog Wood Blossoms

WunderPhotos

Upload Photos

1,702,563 photos uploaded!

WunderBlogs® & News

Nearby

Snow Depth

Not available.

Coastal Water Temperatures

Place Temperature
No Stations Reporting

Earthquake Activity

City Distance Mag. Time & Date
No recent earthquake activity has been reported nearby.
Minimum magnitude displayed is 2.5.

Nearby Weather Stations

Station Location Temp. Windchill Dew Point Humidity Wind Precip. Elev Updated Type
Sopot 43.9 °F 44 °F 42 °F 92% NW  at  0.7 mph 0.00 in / hr 131 ft 3:09 AM CEST Normal
Gdansk 47.8 °F 43 °F 30 °F 51% North  at  10.0 mph 0.00 in / hr 40 ft 3:00 AM CEST Normal
Sobieszewo, Gdansk 48.0 °F 48 °F 46 °F 91% NNE  at  3.0 mph 0.00 in / hr 10 ft 3:29 AM CEST Rapid Fire
GOLUBIE KASZUBY, Golubie 45.3 °F 43 °F 41 °F 85% NE  at  4.5 mph 0.00 in / hr 597 ft 3:25 AM CEST Normal
Tczew, Tczew 46.6 °F 47 °F 45 °F 93% North  at  0.7 mph 0.00 in / hr 75 ft 3:15 AM CEST Normal

Show More Stations Show Fewer Stations

What do you think?

We're not finished. Please let us know what you like, what you don't like, and what you are still missing.